Costa Luminosa — ICGU — position and weather

sailwx.info

Track history (hours):
 
Tides and Currents Weather Stations Pressure Air Temp Water Temp Dewpoint Dewpoint Depression Visibility Wind Speed Wind Dir Waves Ship Positions

Costa Luminosa

Last reported at 2016-Aug-29 21:33 UTC. Time now 2016-Aug-29 21:40 UTC.
Position N 37°09' W 009°35'.

Length 294 m; draft 8.3 m.

Type: Passenger vessel. MMSI: 247257900.

Date/timePositionNaut miles runAvg speedWind from/ knotsBaromVisibWave heightAir tempDewpointWater temp
2016-Aug-29 21:33N 37°09' W 009°35'2120.7
2016-Aug-29 20:33N 37°29' W 009°32'2020.3
2016-Aug-29 19:33N 37°49' W 009°30'2020.3
2016-Aug-29 18:33N 38°10' W 009°28'2020.3
2016-Aug-29 17:34N 38°30' W 009°25'1515.1
2016-Aug-29 16:33N 38°41' W 009°12'4 3.5
2016-Aug-29 15:28N 38°43' W 009°07'0 0.0
2016-Aug-29 14:28N 38°43' W 009°07'0 0.0
2016-Aug-29 13:31N 38°43' W 009°07'0 0.0
2016-Aug-29 12:25N 38°43' W 009°07'0 0.0
2016-Aug-29 11:31N 38°43' W 009°07'0 0.0
2016-Aug-29 10:28N 38°43' W 009°07'0 0.0
2016-Aug-29 09:31N 38°43' W 009°07'0 0.0
2016-Aug-29 08:31N 38°43' W 009°07'0 0.0
2016-Aug-29 07:31N 38°43' W 009°07'0 0.0
2016-Aug-29 06:28N 38°43' W 009°07'4 4.5
2016-Aug-29 05:33N 38°41' W 009°12'1212.4
2016-Aug-29 04:33N 38°36' W 009°27'1414.2
2016-Aug-29 03:33N 38°43' W 009°43'2019.6
2016-Aug-29 02:33N 39°02' W 009°45'2020.2
2016-Aug-29 01:33N 39°22' W 009°49'2019.9
2016-Aug-29 00:32N 39°43' W 009°46'2319.7
2016-Aug-28 23:22N 40°05' W 009°39'10419.9
2016-Aug-28 18:10N 41°46' W 009°07'275 9.9
2016-Aug-27 14:21N 46°13' W 007°32'1620.2
2016-Aug-27 13:33N 46°26' W 007°20'2220.3
2016-Aug-27 12:29N 46°44' W 007°03'8219.6
2016-Aug-27 08:19N 47°54' W 005°59'1519.8
2016-Aug-27 07:33N 48°07' W 005°48'1919.5
2016-Aug-27 06:33N 48°23' W 005°32'3618.2
2016-Aug-27 04:34N 48°50' W 004°56'1818.2
2016-Aug-27 03:34N 49°02' W 004°35'1817.9
2016-Aug-27 02:34N 49°14' W 004°14'1717.3
2016-Aug-27 01:34N 49°25' W 003°54'1716.9
2016-Aug-27 00:34N 49°36' W 003°34'1717.0
2016-Aug-26 23:34N 49°48' W 003°15'1817.7
2016-Aug-26 22:34N 49°58' W 002°53'1918.5
2016-Aug-26 21:34N 50°02' W 002°25'2020.3
2016-Aug-26 20:34N 49°59' W 001°53'2322.7
2016-Aug-26 19:34N 49°56' W 001°18'2221.5
2016-Aug-26 18:33N 49°47' W 000°48'2020.2
2016-Aug-26 17:34N 49°36' W 000°21'1716.9
2016-Aug-26 16:34N 49°30' E 000°03'3 2.5
2016-Aug-26 15:33N 49°29' E 000°06'0 0.0
2016-Aug-26 14:33N 49°29' E 000°06'0 0.0
2016-Aug-26 13:33N 49°29' E 000°06'0 0.0
2016-Aug-26 12:33N 49°29' E 000°06'0 0.0
2016-Aug-26 11:33N 49°29' E 000°06'0 0.0
2016-Aug-26 10:33N 49°29' E 000°06'0 0.0
2016-Aug-26 09:33N 49°29' E 000°06'0 0.0
2016-Aug-26 08:33N 49°29' E 000°06'0 0.0
2016-Aug-26 07:33N 49°29' E 000°06'0 0.0
2016-Aug-26 06:33N 49°29' E 000°06'0 0.0
2016-Aug-26 04:33N 49°29' E 000°06'1 0.5
2016-Aug-26 03:34N 49°29' E 000°07'1110.5
2016-Aug-26 02:33N 49°32' W 000°08'1616.0
2016-Aug-26 01:33N 49°45' W 000°23'1716.8
2016-Aug-26 00:33N 50°01' W 000°18'2019.7
2016-Aug-25 23:33N 50°20' W 000°08'1919.3
2016-Aug-25 22:33N 50°31' E 000°16'2120.9
2016-Aug-25 21:33N 50°41' E 000°46'2020.1
2016-Aug-25 20:33N 50°54' E 001°09'1414.2
2016-Aug-25 19:33N 51°05' E 001°23'3 2.4
2016-Aug-25 18:28N 51°07' E 001°19'0 0.0
2016-Aug-25 17:28N 51°07' E 001°19'0 0.0
2016-Aug-25 16:28N 51°07' E 001°19'0 0.0
2016-Aug-25 15:28N 51°07' E 001°19'0 0.0
2016-Aug-25 14:28N 51°07' E 001°19'0 0.0
2016-Aug-25 13:28N 51°07' E 001°19'0 0.0
2016-Aug-25 12:22N 51°07' E 001°19'0 0.0
2016-Aug-25 11:28N 51°07' E 001°19'0 0.0
2016-Aug-25 10:28N 51°07' E 001°19'0 0.0
2016-Aug-25 09:28N 51°07' E 001°19'0 0.0
2016-Aug-25 08:28N 51°07' E 001°19'0 0.0
2016-Aug-25 07:28N 51°07' E 001°19'0 0.0
2016-Aug-25 06:29N 51°07' E 001°19'10 5.3
2016-Aug-25 04:33N 51°09' E 001°35'8 8.4
2016-Aug-25 03:33N 51°14' E 001°45'1212.0
2016-Aug-25 02:34N 51°25' E 001°55'1615.8
2016-Aug-25 01:33N 51°37' E 002°11'1616.1
2016-Aug-25 00:33N 51°49' E 002°28'1615.9
2016-Aug-24 23:33N 52°01' E 002°45'1514.7
2016-Aug-24 22:33N 52°12' E 003°01'1413.5
2016-Aug-24 21:32N 52°22' E 003°17'1413.9
2016-Aug-24 20:33N 52°28' E 003°37'1615.6
2016-Aug-24 19:33N 52°31' E 004°02'1514.5
2016-Aug-24 18:33N 52°29' E 004°26'7 6.7
2016-Aug-24 17:34N 52°28' E 004°36'3 3.4
2016-Aug-24 16:34N 52°27' E 004°42'7 7.0
2016-Aug-24 15:34N 52°24' E 004°52'2 2.2
2016-Aug-24 14:31N 52°23' E 004°55'0 0.0
2016-Aug-24 13:31N 52°23' E 004°55'0 0.0
2016-Aug-24 12:25N 52°23' E 004°55'0 0.0
2016-Aug-24 11:31N 52°23' E 004°55'0 0.0
2016-Aug-24 10:31N 52°23' E 004°55'0 0.0
2016-Aug-24 09:31N 52°23' E 004°55'0 0.0
2016-Aug-24 08:28N 52°23' E 004°55'0 0.0
2016-Aug-24 07:31N 52°23' E 004°55'0 0.0
2016-Aug-24 06:33N 52°23' E 004°55'11 5.4
2016-Aug-24 04:34N 52°28' E 004°39'2 2.1
2016-Aug-24 03:33N 52°28' E 004°36'6 6.1
2016-Aug-24 02:33N 52°29' E 004°26'1313.2
2016-Aug-24 01:33N 52°34' E 004°06'1918.7
2016-Aug-24 00:33N 52°52' E 003°59'1918.7
2016-Aug-23 23:33N 53°07' E 004°18'1817.8
2016-Aug-23 22:33N 53°23' E 004°31'1817.7
2016-Aug-23 21:33N 53°39' E 004°41'1817.6
2016-Aug-23 20:33N 53°55' E 004°53'1818.0
2016-Aug-23 19:33N 54°12' E 005°06'1918.5
2016-Aug-23 18:33N 54°28' E 005°22'1918.5
2016-Aug-23 17:32N 54°44' E 005°39'1818.3
2016-Aug-23 16:33N 54°60' E 005°54'1818.2
2016-Aug-23 15:33N 55°16' E 006°09'1818.2
2016-Aug-23 14:33N 55°32' E 006°25'1918.2
2016-Aug-23 13:32N 55°48' E 006°39'1616.3
2016-Aug-23 12:32N 56°03' E 006°52'15214.7
2016-Aug-23 02:14N 57°51' E 010°07'2715.8
2016-Aug-23 00:33N 57°47' E 010°56'1716.7
2016-Aug-22 23:33N 57°35' E 011°18'1717.4
2016-Aug-22 22:33N 57°19' E 011°32'1717.2
2016-Aug-22 21:34N 57°03' E 011°43'1716.7
2016-Aug-22 20:34N 56°47' E 011°53'1716.7
2016-Aug-22 19:34N 56°31' E 011°60'1616.1
2016-Aug-22 18:34N 56°16' E 012°11'1716.9
2016-Aug-22 17:34N 56°06' E 012°35'1717.0
2016-Aug-22 16:34N 55°50' E 012°45'8 8.1
2016-Aug-22 15:33N 55°43' E 012°38'0 0.0
2016-Aug-22 14:33N 55°43' E 012°38'0 0.0
2016-Aug-22 13:33N 55°43' E 012°38'0 0.0
2016-Aug-22 12:33N 55°43' E 012°38'0 0.0
2016-Aug-22 11:33N 55°43' E 012°38'0 0.0
2016-Aug-22 10:33N 55°43' E 012°38'0 0.0
2016-Aug-22 09:33N 55°43' E 012°38'0 0.0
2016-Aug-22 08:33N 55°43' E 012°38'0 0.0
2016-Aug-22 07:33N 55°43' E 012°38'0 0.0
2016-Aug-22 06:33N 55°43' E 012°38'7 7.1
2016-Aug-22 05:34N 55°49' E 012°43'1515.0
2016-Aug-22 04:34N 56°04' E 012°37'1615.9
2016-Aug-22 03:34N 56°12' E 012°13'1717.2
2016-Aug-22 02:33N 56°08' E 011°43'1817.0
2016-Aug-22 01:30N 56°07' E 011°11'1818.0
2016-Aug-22 00:31N 55°52' E 010°53'3518.0
2016-Aug-21 22:33N 55°17' E 011°04'2019.8
2016-Aug-21 21:34N 54°58' E 010°59'1717.2
2016-Aug-21 20:34N 54°40' E 010°59'2120.6
2016-Aug-21 19:34N 54°31' E 011°31'2019.7
2016-Aug-21 18:33N 54°26' E 012°04'1818.3
2016-Aug-21 17:33N 54°40' E 012°23'2619.9
2016-Aug-21 16:13N 54°52' E 013°04'1420.6
2016-Aug-21 15:33N 54°56' E 013°27'2120.9
2016-Aug-21 14:34N 55°04' E 014°01'2120.7
2016-Aug-21 13:33N 55°19' E 014°24'2120.5
2016-Aug-21 12:34N 55°33' E 014°52'2020.4
2016-Aug-21 11:33N 55°42' E 015°24'22319.9
2016-Aug-21 00:22N 58°49' E 019°10'2120.8
2016-Aug-20 23:21N 59°07' E 019°30'3917.6
2016-Aug-20 21:08N 59°46' E 019°40'4412.3
2016-Aug-20 17:33N 59°26' E 018°23'5 5.5
2016-Aug-20 16:33N 59°22' E 018°16'4 4.2
2016-Aug-20 15:31N 59°21' E 018°08'0 0.0
2016-Aug-20 14:34N 59°21' E 018°08'0 0.0
2016-Aug-20 13:34N 59°21' E 018°08'0 0.0
2016-Aug-20 12:31N 59°21' E 018°08'0 0.0
2016-Aug-20 11:34N 59°21' E 018°08'0 0.0
2016-Aug-20 10:34N 59°21' E 018°08'0 0.0
2016-Aug-20 09:34N 59°21' E 018°08'0 0.0
2016-Aug-20 08:34N 59°21' E 018°08'0 0.0
2016-Aug-20 07:34N 59°21' E 018°08'0 0.0
2016-Aug-20 06:31N 59°21' E 018°08'0 0.0
2016-Aug-20 05:34N 59°21' E 018°08'0 0.0
2016-Aug-20 04:34N 59°21' E 018°08'0 0.0
2016-Aug-20 03:34N 59°21' E 018°08'0 0.0
2016-Aug-20 02:34N 59°21' E 018°08'0 0.0
2016-Aug-20 01:34N 59°21' E 018°08'0 0.0
2016-Aug-20 00:31N 59°21' E 018°08'0 0.0
2016-Aug-19 23:34N 59°21' E 018°08'0 0.0
2016-Aug-19 22:34N 59°21' E 018°08'0 0.0
2016-Aug-19 21:34N 59°21' E 018°08'  
Track history (hours):
 
Tides and Currents Weather Stations Pressure Air Temp Water Temp Dewpoint Dewpoint Depression Visibility Wind Speed Wind Dir Waves Ship Positions

Costa Luminosa

Last reported at 2016-Aug-29 21:33 UTC. Time now 2016-Aug-29 21:40 UTC.
Position N 37°09' W 009°35'.

Length 294 m; draft 8.3 m.

Type: Passenger vessel. MMSI: 247257900.

Date/timePositionNaut miles runAvg speedWind from/ knotsBaromVisibWave heightAir tempDewpointWater temp
2016-Aug-29 21:33N 37°09' W 009°35'2120.7
2016-Aug-29 20:33N 37°29' W 009°32'2020.3
2016-Aug-29 19:33N 37°49' W 009°30'2020.3
2016-Aug-29 18:33N 38°10' W 009°28'2020.3
2016-Aug-29 17:34N 38°30' W 009°25'1515.1
2016-Aug-29 16:33N 38°41' W 009°12'4 3.5
2016-Aug-29 15:28N 38°43' W 009°07'0 0.0
2016-Aug-29 14:28N 38°43' W 009°07'0 0.0
2016-Aug-29 13:31N 38°43' W 009°07'0 0.0
2016-Aug-29 12:25N 38°43' W 009°07'0 0.0
2016-Aug-29 11:31N 38°43' W 009°07'0 0.0
2016-Aug-29 10:28N 38°43' W 009°07'0 0.0
2016-Aug-29 09:31N 38°43' W 009°07'0 0.0
2016-Aug-29 08:31N 38°43' W 009°07'0 0.0
2016-Aug-29 07:31N 38°43' W 009°07'0 0.0
2016-Aug-29 06:28N 38°43' W 009°07'4 4.5
2016-Aug-29 05:33N 38°41' W 009°12'1212.4
2016-Aug-29 04:33N 38°36' W 009°27'1414.2
2016-Aug-29 03:33N 38°43' W 009°43'2019.6
2016-Aug-29 02:33N 39°02' W 009°45'2020.2
2016-Aug-29 01:33N 39°22' W 009°49'2019.9
2016-Aug-29 00:32N 39°43' W 009°46'2319.7
2016-Aug-28 23:22N 40°05' W 009°39'10419.9
2016-Aug-28 18:10N 41°46' W 009°07'275 9.9
2016-Aug-27 14:21N 46°13' W 007°32'1620.2
2016-Aug-27 13:33N 46°26' W 007°20'2220.3
2016-Aug-27 12:29N 46°44' W 007°03'8219.6
2016-Aug-27 08:19N 47°54' W 005°59'1519.8
2016-Aug-27 07:33N 48°07' W 005°48'1919.5
2016-Aug-27 06:33N 48°23' W 005°32'3618.2
2016-Aug-27 04:34N 48°50' W 004°56'1818.2
2016-Aug-27 03:34N 49°02' W 004°35'1817.9
2016-Aug-27 02:34N 49°14' W 004°14'1717.3
2016-Aug-27 01:34N 49°25' W 003°54'1716.9
2016-Aug-27 00:34N 49°36' W 003°34'1717.0
2016-Aug-26 23:34N 49°48' W 003°15'1817.7
2016-Aug-26 22:34N 49°58' W 002°53'1918.5
2016-Aug-26 21:34N 50°02' W 002°25'2020.3
2016-Aug-26 20:34N 49°59' W 001°53'2322.7
2016-Aug-26 19:34N 49°56' W 001°18'2221.5
2016-Aug-26 18:33N 49°47' W 000°48'2020.2
2016-Aug-26 17:34N 49°36' W 000°21'1716.9
2016-Aug-26 16:34N 49°30' E 000°03'3 2.5
2016-Aug-26 15:33N 49°29' E 000°06'0 0.0
2016-Aug-26 14:33N 49°29' E 000°06'0 0.0
2016-Aug-26 13:33N 49°29' E 000°06'0 0.0
2016-Aug-26 12:33N 49°29' E 000°06'0 0.0
2016-Aug-26 11:33N 49°29' E 000°06'0 0.0
2016-Aug-26 10:33N 49°29' E 000°06'0 0.0
2016-Aug-26 09:33N 49°29' E 000°06'0 0.0
2016-Aug-26 08:33N 49°29' E 000°06'0 0.0
2016-Aug-26 07:33N 49°29' E 000°06'0 0.0
2016-Aug-26 06:33N 49°29' E 000°06'0 0.0
2016-Aug-26 04:33N 49°29' E 000°06'1 0.5
2016-Aug-26 03:34N 49°29' E 000°07'1110.5
2016-Aug-26 02:33N 49°32' W 000°08'1616.0
2016-Aug-26 01:33N 49°45' W 000°23'1716.8
2016-Aug-26 00:33N 50°01' W 000°18'2019.7
2016-Aug-25 23:33N 50°20' W 000°08'1919.3
2016-Aug-25 22:33N 50°31' E 000°16'2120.9
2016-Aug-25 21:33N 50°41' E 000°46'2020.1
2016-Aug-25 20:33N 50°54' E 001°09'1414.2
2016-Aug-25 19:33N 51°05' E 001°23'3 2.4
2016-Aug-25 18:28N 51°07' E 001°19'0 0.0
2016-Aug-25 17:28N 51°07' E 001°19'0 0.0
2016-Aug-25 16:28N 51°07' E 001°19'0 0.0
2016-Aug-25 15:28N 51°07' E 001°19'0 0.0
2016-Aug-25 14:28N 51°07' E 001°19'0 0.0
2016-Aug-25 13:28N 51°07' E 001°19'0 0.0
2016-Aug-25 12:22N 51°07' E 001°19'0 0.0
2016-Aug-25 11:28N 51°07' E 001°19'0 0.0
2016-Aug-25 10:28N 51°07' E 001°19'0 0.0
2016-Aug-25 09:28N 51°07' E 001°19'0 0.0
2016-Aug-25 08:28N 51°07' E 001°19'0 0.0
2016-Aug-25 07:28N 51°07' E 001°19'0 0.0
2016-Aug-25 06:29N 51°07' E 001°19'10 5.3
2016-Aug-25 04:33N 51°09' E 001°35'8 8.4
2016-Aug-25 03:33N 51°14' E 001°45'1212.0
2016-Aug-25 02:34N 51°25' E 001°55'1615.8
2016-Aug-25 01:33N 51°37' E 002°11'1616.1
2016-Aug-25 00:33N 51°49' E 002°28'1615.9
2016-Aug-24 23:33N 52°01' E 002°45'1514.7
2016-Aug-24 22:33N 52°12' E 003°01'1413.5
2016-Aug-24 21:32N 52°22' E 003°17'1413.9
2016-Aug-24 20:33N 52°28' E 003°37'1615.6
2016-Aug-24 19:33N 52°31' E 004°02'1514.5
2016-Aug-24 18:33N 52°29' E 004°26'7 6.7
2016-Aug-24 17:34N 52°28' E 004°36'3 3.4
2016-Aug-24 16:34N 52°27' E 004°42'7 7.0
2016-Aug-24 15:34N 52°24' E 004°52'2 2.2
2016-Aug-24 14:31N 52°23' E 004°55'0 0.0
2016-Aug-24 13:31N 52°23' E 004°55'0 0.0
2016-Aug-24 12:25N 52°23' E 004°55'0 0.0
2016-Aug-24 11:31N 52°23' E 004°55'0 0.0
2016-Aug-24 10:31N 52°23' E 004°55'0 0.0
2016-Aug-24 09:31N 52°23' E 004°55'0 0.0
2016-Aug-24 08:28N 52°23' E 004°55'0 0.0
2016-Aug-24 07:31N 52°23' E 004°55'0 0.0
2016-Aug-24 06:33N 52°23' E 004°55'11 5.4
2016-Aug-24 04:34N 52°28' E 004°39'2 2.1
2016-Aug-24 03:33N 52°28' E 004°36'6 6.1
2016-Aug-24 02:33N 52°29' E 004°26'1313.2
2016-Aug-24 01:33N 52°34' E 004°06'1918.7
2016-Aug-24 00:33N 52°52' E 003°59'1918.7
2016-Aug-23 23:33N 53°07' E 004°18'1817.8
2016-Aug-23 22:33N 53°23' E 004°31'1817.7
2016-Aug-23 21:33N 53°39' E 004°41'1817.6
2016-Aug-23 20:33N 53°55' E 004°53'1818.0
2016-Aug-23 19:33N 54°12' E 005°06'1918.5
2016-Aug-23 18:33N 54°28' E 005°22'1918.5
2016-Aug-23 17:32N 54°44' E 005°39'1818.3
2016-Aug-23 16:33N 54°60' E 005°54'1818.2
2016-Aug-23 15:33N 55°16' E 006°09'1818.2
2016-Aug-23 14:33N 55°32' E 006°25'1918.2
2016-Aug-23 13:32N 55°48' E 006°39'1616.3
2016-Aug-23 12:32N 56°03' E 006°52'15214.7
2016-Aug-23 02:14N 57°51' E 010°07'2715.8
2016-Aug-23 00:33N 57°47' E 010°56'1716.7
2016-Aug-22 23:33N 57°35' E 011°18'1717.4
2016-Aug-22 22:33N 57°19' E 011°32'1717.2
2016-Aug-22 21:34N 57°03' E 011°43'1716.7
2016-Aug-22 20:34N 56°47' E 011°53'1716.7
2016-Aug-22 19:34N 56°31' E 011°60'1616.1
2016-Aug-22 18:34N 56°16' E 012°11'1716.9
2016-Aug-22 17:34N 56°06' E 012°35'1717.0
2016-Aug-22 16:34N 55°50' E 012°45'8 8.1
2016-Aug-22 15:33N 55°43' E 012°38'0 0.0
2016-Aug-22 14:33N 55°43' E 012°38'0 0.0
2016-Aug-22 13:33N 55°43' E 012°38'0 0.0
2016-Aug-22 12:33N 55°43' E 012°38'0 0.0
2016-Aug-22 11:33N 55°43' E 012°38'0 0.0
2016-Aug-22 10:33N 55°43' E 012°38'0 0.0
2016-Aug-22 09:33N 55°43' E 012°38'0 0.0
2016-Aug-22 08:33N 55°43' E 012°38'0 0.0
2016-Aug-22 07:33N 55°43' E 012°38'0 0.0
2016-Aug-22 06:33N 55°43' E 012°38'7 7.1
2016-Aug-22 05:34N 55°49' E 012°43'1515.0
2016-Aug-22 04:34N 56°04' E 012°37'1615.9
2016-Aug-22 03:34N 56°12' E 012°13'1717.2
2016-Aug-22 02:33N 56°08' E 011°43'1817.0
2016-Aug-22 01:30N 56°07' E 011°11'1818.0
2016-Aug-22 00:31N 55°52' E 010°53'3518.0
2016-Aug-21 22:33N 55°17' E 011°04'2019.8
2016-Aug-21 21:34N 54°58' E 010°59'1717.2
2016-Aug-21 20:34N 54°40' E 010°59'2120.6
2016-Aug-21 19:34N 54°31' E 011°31'2019.7
2016-Aug-21 18:33N 54°26' E 012°04'1818.3
2016-Aug-21 17:33N 54°40' E 012°23'2619.9
2016-Aug-21 16:13N 54°52' E 013°04'1420.6
2016-Aug-21 15:33N 54°56' E 013°27'2120.9
2016-Aug-21 14:34N 55°04' E 014°01'2120.7
2016-Aug-21 13:33N 55°19' E 014°24'2120.5
2016-Aug-21 12:34N 55°33' E 014°52'2020.4
2016-Aug-21 11:33N 55°42' E 015°24'22319.9
2016-Aug-21 00:22N 58°49' E 019°10'2120.8
2016-Aug-20 23:21N 59°07' E 019°30'3917.6
2016-Aug-20 21:08N 59°46' E 019°40'4412.3
2016-Aug-20 17:33N 59°26' E 018°23'5 5.5
2016-Aug-20 16:33N 59°22' E 018°16'4 4.2
2016-Aug-20 15:31N 59°21' E 018°08'0 0.0
2016-Aug-20 14:34N 59°21' E 018°08'0 0.0
2016-Aug-20 13:34N 59°21' E 018°08'0 0.0
2016-Aug-20 12:31N 59°21' E 018°08'0 0.0
2016-Aug-20 11:34N 59°21' E 018°08'0 0.0
2016-Aug-20 10:34N 59°21' E 018°08'0 0.0
2016-Aug-20 09:34N 59°21' E 018°08'0 0.0
2016-Aug-20 08:34N 59°21' E 018°08'0 0.0
2016-Aug-20 07:34N 59°21' E 018°08'0 0.0
2016-Aug-20 06:31N 59°21' E 018°08'0 0.0
2016-Aug-20 05:34N 59°21' E 018°08'0 0.0
2016-Aug-20 04:34N 59°21' E 018°08'0 0.0
2016-Aug-20 03:34N 59°21' E 018°08'0 0.0
2016-Aug-20 02:34N 59°21' E 018°08'0 0.0
2016-Aug-20 01:34N 59°21' E 018°08'0 0.0
2016-Aug-20 00:31N 59°21' E 018°08'0 0.0
2016-Aug-19 23:34N 59°21' E 018°08'0 0.0
2016-Aug-19 22:34N 59°21' E 018°08'0 0.0
2016-Aug-19 21:34N 59°21' E 018°08'  

Dump ship's entire track history